WetterOnline ( https://www.wetteronline.de )

Wetter aktuell Hoyerswerda

Aktuelles Wetter: Hoyerswerda (116m)

6-stündlich | Neueste Meldungen
Ortszeit Temperatur Wetter
Fr, 22.11. 1:00 9.1° C Sprühregen
Do, 21.11. 19:00 8.6° C leichter Regen
Do, 21.11. 13:00 8.9° C Sprühregen
Do, 21.11. 7:00 6.8° C Nebel
Do, 21.11. 1:00 5.7° C bedeckt
Mi, 20.11. 19:00 5.1° C bedeckt
Mi, 20.11. 13:00 5.1° C bedeckt
Mi, 20.11. 7:00 4.5° C bedeckt
Ortszeit Temperatur Wetter
Fr, 22.11. 5:30 8.5° C bedeckt
Fr, 22.11. 5:20 8.5° C bedeckt
Fr, 22.11. 5:10 8.5° C bedeckt
Fr, 22.11. 5:00 8.5° C bedeckt
Fr, 22.11. 4:50 8.5° C bedeckt
Fr, 22.11. 4:40 8.6° C bewölkt
Fr, 22.11. 4:30 8.8° C bedeckt
Fr, 22.11. 4:00 8.9° C bedeckt
Ortszeit Relative Feuchte Sichtweite
Fr, 22.11. 1:00 97% 4.2 km
Do, 21.11. 19:00 99% 2.3 km
Do, 21.11. 13:00 94% 5.0 km
Do, 21.11. 7:00 100% 0.6 km
Do, 21.11. 1:00 99% 1.1 km
Mi, 20.11. 19:00 100% 1.4 km
Mi, 20.11. 13:00 95% 7 km
Mi, 20.11. 7:00 97% 7 km
Ortszeit Relative Feuchte Sichtweite
Fr, 22.11. 5:30 94% 18 km
Fr, 22.11. 5:20 94% -
Fr, 22.11. 5:10 94% -
Fr, 22.11. 5:00 97% 9 km
Fr, 22.11. 4:50 97% -
Fr, 22.11. 4:40 96% -
Fr, 22.11. 4:30 95% 9 km
Fr, 22.11. 4:00 95% 9 km
Ortszeit Niederschlagsmenge Niederschlagsart
Fr, 22.11. 1:00 0.1 l/m2 in 6 Std. Regen
Do, 21.11. 19:00 0.9 l/m2 in 12 Std. Regen
Do, 21.11. 13:00 0.1 l/m2 in 6 Std. Regen
Do, 21.11. 7:00 0.1 l/m2 in 12 Std. Regen
Do, 21.11. 1:00 0.0 l/m2 in 6 Std. -
Mi, 20.11. 19:00 0.1 l/m2 in 12 Std. -
Mi, 20.11. 13:00 0.1 l/m2 in 6 Std. Sprühregen
Mi, 20.11. 7:00 0.4 l/m2 in 12 Std. Regen
Ortszeit Niederschlagsmenge Niederschlagsart
Fr, 22.11. 5:30 0.0 l/m2 in 1 Std. -
Fr, 22.11. 5:20 keine Meldung -
Fr, 22.11. 5:10 keine Meldung -
Fr, 22.11. 5:00 0.0 l/m2 in 1 Std. -
Fr, 22.11. 4:50 keine Meldung -
Fr, 22.11. 4:40 keine Meldung -
Fr, 22.11. 4:30 0.0 l/m2 in 1 Std. -
Fr, 22.11. 4:00 0.1 l/m2 in 1 Std. Regen
Ortszeit Stärke Spitze Richtung
km/h Bft. km/h Grad Sektor
Fr, 22.11. 1:00 9 2 17 130° SO
Do, 21.11. 19:00 7 2 14 100° O
Do, 21.11. 13:00 7 2 18 80° O
Do, 21.11. 7:00 7 2 17 80° O
Do, 21.11. 1:00 7 2 14 90° O
Mi, 20.11. 19:00 6 1 11 50° NO
Mi, 20.11. 13:00 4 1 18 350° N
Mi, 20.11. 7:00 9 2 19 340° N
Ortszeit Stärke Spitze Richtung
km/h Bft. km/h Grad Sektor
Fr, 22.11. 5:30 7 2 11 190° S
Fr, 22.11. 5:20 7 2 - 190° S
Fr, 22.11. 5:10 4 1 - 190° S
Fr, 22.11. 5:00 4 1 14 220° SW
Fr, 22.11. 4:50 4 1 - 220° SW
Fr, 22.11. 4:40 7 2 - 210° SW
Fr, 22.11. 4:30 7 2 13 220° SW
Fr, 22.11. 4:00 9 2 17 210° SW
Ortszeit Untergrenze Bedeckung Gattung
total tief tief mittel hoch
Fr, 22.11. 1:00 540 m 8/8 8/8 - - -
Do, 21.11. 19:00 90 m 7/8 7/8 - - -
Do, 21.11. 13:00 180 m 8/8 8/8 - - -
Do, 21.11. 7:00 30 m 8/8 8/8 - - -
Do, 21.11. 1:00 30 m 8/8 8/8 - - -
Mi, 20.11. 19:00 30 m 8/8 8/8 - - -
Mi, 20.11. 13:00 180 m 8/8 8/8 - - -
Mi, 20.11. 7:00 150 m 8/8 8/8 - - -
Ortszeit Bedeckungsgrad in Achtel und Wolkenuntergrenze
Fr, 22.11. 5:30 2(420m) 8(630m)
Fr, 22.11. 5:20 2(420m) 8(630m)
Fr, 22.11. 5:10 3(420m) 8(630m)
Fr, 22.11. 5:00 1(180m) 6(390m) 8(600m)
Fr, 22.11. 4:50 1(180m) 6(390m) 8(600m)
Fr, 22.11. 4:40 2(180m) 7(330m)
Fr, 22.11. 4:30 8(240m) 8(330m)
Fr, 22.11. 4:00 4(240m) 8(360m)
Ortszeit Luftdruck NN (hPa) Tendenz (hPa in 3 Std.)
Fr, 22.11. 1:00 1009 0,0
Do, 21.11. 19:00 1009 - 0,6
Do, 21.11. 13:00 1011 - 1,4
Do, 21.11. 7:00 1013 - 0,9
Do, 21.11. 1:00 1015 - 0,6
Mi, 20.11. 19:00 1017 - 0,3
Mi, 20.11. 13:00 1018 - 0,8
Mi, 20.11. 7:00 1019 0,0
Ortszeit Luftdruck NN (hPa) Tendenz (hPa in 3 Std.)
Fr, 22.11. 5:30 1011 + 0,9
Fr, 22.11. 5:20 1011 keine Meldung
Fr, 22.11. 5:10 1011 keine Meldung
Fr, 22.11. 5:00 1011 + 1,1
Fr, 22.11. 4:50 1011 keine Meldung
Fr, 22.11. 4:40 1011 keine Meldung
Fr, 22.11. 4:30 1011 + 1,1
Fr, 22.11. 4:00 1010 + 1,2
Ortszeit Schneehöhe (cm)
Fr, 22.11. 1:00 0
Do, 21.11. 19:00 0
Do, 21.11. 13:00 0
Do, 21.11. 7:00 0
Do, 21.11. 1:00 0
Mi, 20.11. 19:00 0
Mi, 20.11. 13:00 0
Mi, 20.11. 7:00 0
Ortszeit Schneehöhe (cm)
Fr, 22.11. 5:30 0
Fr, 22.11. 5:20 0
Fr, 22.11. 5:10 0
Fr, 22.11. 5:00 0
Fr, 22.11. 4:50 0
Fr, 22.11. 4:40 0
Fr, 22.11. 4:30 0
Fr, 22.11. 4:00 0
Link zu dieser Seite / Seite empfehlen

Das Wetter in ...